Flight Track Log - Related Links

Times and Time Zones

All times are in EDT time to prevent confusion due to time zone crossing. See the UAL464 flight status page for this flight to view local times or setup timezone preferences in your user account.

Time Position Orientation Groundspeed Altitude Reporting Facility
EDT Latitude Longitude Course Direction KTS MPH feet Rate Location/Type
Wed 10:26:28 AM 39.7833 -104.6000 66° East 212 244 7,800  Level Denver TRACON
Wed 10:28:00 AM 39.9312 -104.2299 78° East  Level FlightAware Approximate
Wed 10:28:08 AM 39.7222 -104.4750 122° Southeast 296 341 10,900  Level Denver Center
Wed 10:29:00 AM 39.9556 -104.0831 78° East  Level FlightAware Approximate
Wed 10:29:10 AM 39.7750 -104.3472 62° Northeast 378 435 12,900  Level Denver Center
Wed 10:30:00 AM 39.9826 -103.9371 75° East  Level FlightAware Approximate
Wed 10:30:12 AM 39.8272 -104.2214 62° Northeast 396 456 16,700  Level Denver Center
Wed 10:31:00 AM 40.0085 -103.7912 66° East  Level FlightAware Approximate
Wed 10:31:14 AM 39.8864 -104.0825 61° Northeast 415 478 18,100  Level Denver Center
Wed 10:32:16 AM 39.9456 -103.9483 60° Northeast 426 490 19,600 1,355 Climbing Denver Center
Wed 10:33:18 AM 40.0094 -103.7981 61° Northeast 442 509 20,900 1,210 Climbing Denver Center
Wed 10:34:20 AM 40.0436 -103.6389 74° East 434 499 22,100 1,403 Climbing Denver Center
Wed 10:35:22 AM 40.0681 -103.4828 78° East 446 513 23,800 1,355 Climbing Denver Center
Wed 10:36:24 AM 40.0933 -103.3303 78° East 450 518 24,900 629 Climbing Denver Center
Wed 10:37:26 AM 40.1233 -103.1442 78° East 469 540 25,100 290 Climbing Denver Center
Wed 10:38:28 AM 40.1492 -102.9786 78° East 485 558 25,500 1,104 Climbing Denver Center
Wed 10:39:31 AM 40.1789 -102.7839 79° East 489 563 27,400 2,016 Climbing Denver Center
Wed 10:40:33 AM 40.2033 -102.6306 78° East 453 521 29,700 1,500 Climbing Denver Center
Wed 10:41:35 AM 40.2303 -102.4553 79° East 444 511 30,500 484 Climbing Denver Center
Wed 10:42:37 AM 40.2533 -102.2978 79° East 458 527 30,700 435 Climbing Denver Center
Wed 10:43:39 AM 40.2822 -102.1075 79° East 476 548 31,400 823 Climbing Denver Center
Wed 10:44:41 AM 40.3069 -101.9456 79° East 474 545 32,400 1,161 Climbing Denver Center
Wed 10:45:43 AM 40.3344 -101.7614 79° East 464 534 33,800 1,016 Climbing Denver Center
Wed 10:46:45 AM 40.3572 -101.6061 79° East 455 524 34,500 581 Climbing Denver Center
Wed 10:47:47 AM 40.3844 -101.4225 79° East 462 532 35,000 242 Climbing Denver Center
Wed 10:48:49 AM 40.4106 -101.2639 78° East 467 537 35,000  Level Denver Center
Wed 10:49:51 AM 40.4431 -101.0731 77° East 478 550 35,000  Level Denver Center
Wed 10:50:53 AM 40.4694 -100.9108 78° East 478 550 35,000  Level Denver Center
Wed 10:51:55 AM 40.5008 -100.7256 77° East 472 543 35,000  Level Denver Center
Wed 10:52:57 AM 40.5267 -100.5642 78° East 476 548 35,000  Level Denver Center
Wed 10:53:59 AM 40.5583 -100.3747 78° East 479 551 35,000  Level Denver Center
Wed 10:55:01 AM 40.5847 -100.2114 78° East 480 552 35,000  Level Denver Center
Wed 10:56:03 AM 40.6150 -100.0192 78° East 483 556 35,000  Level Denver Center
Wed 10:57:05 AM 40.6417 -99.8531 78° East 485 558 35,000  Level Denver Center
Wed 10:58:07 AM 40.6683 -99.6814 78° East 488 562 35,000  Level Denver Center
Wed 10:59:09 AM 40.6956 -99.5067 78° East 489 563 35,000  Level Denver Center
Wed 11:00:11 AM 40.7278 -99.2964 79° East 490 564 35,000  Level Denver Center
Wed 11:01:13 AM 40.7531 -99.1239 79° East 484 557 35,000  Level Denver Center
Wed 11:02:20 AM 40.7794 -98.9456 79° East 484 557 35,000  Level Minneapolis Center
Wed 11:03:22 AM 40.8044 -98.7711 79° East 484 557 35,000  Level Minneapolis Center
Wed 11:04:24 AM 40.8311 -98.5969 79° East 485 558 35,000  Level Minneapolis Center
Wed 11:05:25 AM 40.8556 -98.4208 80° East 486 559 35,000  Level Minneapolis Center
Wed 11:06:27 AM 40.8864 -98.2092 79° East 488 562 35,000  Level Minneapolis Center
Wed 11:07:29 AM 40.9117 -98.0300 79° East 492 566 35,000  Level Minneapolis Center
Wed 11:08:31 AM 40.9375 -97.8497 79° East 496 571 35,000  Level Minneapolis Center
Wed 11:09:33 AM 40.9622 -97.6686 80° East 499 574 35,000  Level Minneapolis Center
Wed 11:10:35 AM 40.9858 -97.4875 80° East 500 575 35,000  Level Minneapolis Center
Wed 11:11:37 AM 41.0111 -97.3036 80° East 503 579 35,000  Level Minneapolis Center
Wed 11:12:39 AM 41.0403 -97.0839 80° East 506 582 35,000  Level Minneapolis Center
Wed 11:13:41 AM 41.0644 -96.8994 80° East 507 583 35,000  Level Minneapolis Center
Wed 11:14:43 AM 41.0878 -96.7131 81° East 510 587 35,000  Level Minneapolis Center
Wed 11:15:45 AM 41.1108 -96.5272 81° East 513 590 35,000  Level Minneapolis Center
Wed 11:16:47 AM 41.1375 -96.3289 80° East 513 590 35,000  Level Minneapolis Center
Wed 11:17:48 AM 41.1592 -96.1456 81° East 510 587 35,000  Level Minneapolis Center
Wed 11:18:50 AM 41.1794 -95.9622 82° East 508 585 35,000  Level Minneapolis Center
Wed 11:19:52 AM 41.2022 -95.7794 81° East 507 583 35,000  Level Minneapolis Center
Wed 11:20:54 AM 41.2261 -95.5825 81° East 499 574 35,000  Level Minneapolis Center
Wed 11:21:56 AM 41.2478 -95.4047 81° East 493 567 35,000  Level Minneapolis Center
Wed 11:22:57 AM 41.2725 -95.1908 81° East 491 565 35,000  Level Minneapolis Center
Wed 11:23:59 AM 41.2922 -95.0158 81° East 484 557 35,000  Level Minneapolis Center
Wed 11:25:01 AM 41.3114 -94.8447 81° East 475 547 35,000  Level Minneapolis Center
Wed 11:26:03 AM 41.3292 -94.6744 82° East 468 539 35,000  Level Minneapolis Center
Wed 11:27:05 AM 41.3478 -94.5025 82° East 469 540 35,000  Level Minneapolis Center
Wed 11:28:07 AM 41.3667 -94.3294 82° East 473 544 35,000  Level Minneapolis Center
Wed 11:29:08 AM 41.3864 -94.1414 82° East 478 550 35,000  Level Minneapolis Center
Wed 11:30:10 AM 41.4036 -93.9675 82° East 478 550 35,000  Level Minneapolis Center
Wed 11:31:12 AM 41.4217 -93.7908 82° East 482 555 35,000  Level Minneapolis Center
Wed 11:32:14 AM 41.4444 -93.5772 82° East 486 559 35,000  Level Minneapolis Center
Wed 11:33:16 AM 41.4628 -93.3981 82° East 489 563 35,000  Level Minneapolis Center
Wed 11:34:17 AM 41.4764 -93.2558 83° East 489 563 35,000  Level Minneapolis Center
Wed 11:35:31 AM 41.4958 -93.0408 83° East 490 564 35,000  Level Minneapolis Center
Wed 11:36:33 AM 41.5150 -92.8303 83° East 482 555 35,000  Level Minneapolis Center
Wed 11:37:35 AM 41.5311 -92.6567 83° East 477 549 35,000  Level Minneapolis Center
Wed 11:38:18 AM 41.5431 -92.5275 83° East 474 545 35,000  Level Chicago Center
Wed 11:39:20 AM 41.5583 -92.3522 83° East 479 551 35,000  Level Chicago Center
Wed 11:40:22 AM 41.5767 -92.1408 83° East 483 556 35,000  Level Chicago Center
Wed 11:41:24 AM 41.5911 -91.9625 84° East 487 560 35,000  Level Chicago Center
Wed 11:42:26 AM 41.6058 -91.7858 84° East 487 560 35,000  Level Chicago Center
Wed 11:43:28 AM 41.6197 -91.6106 84° East 485 558 35,000  Level Chicago Center
Wed 11:44:30 AM 41.6336 -91.4356 84° East 483 556 35,000  Level Chicago Center
Wed 11:45:32 AM 41.6494 -91.2233 84° East 483 556 35,000  Level Chicago Center
Wed 11:46:34 AM 41.6633 -91.0456 84° East 486 559 35,000  Level Chicago Center
Wed 11:47:36 AM 41.6761 -90.8706 84° East 482 555 35,000  Level Chicago Center
Wed 11:48:38 AM 41.6892 -90.6942 84° East 482 555 35,000  Level Chicago Center
Wed 11:49:40 AM 41.7033 -90.4972 84° East 480 552 35,000  Level Chicago Center
Wed 11:50:42 AM 41.7158 -90.3189 85° East 479 551 35,000  Level Chicago Center
Wed 11:51:44 AM 41.7281 -90.1406 85° East 479 551 35,000  Level Chicago Center
Wed 11:52:46 AM 41.7403 -89.9597 85° East 486 559 35,000  Level Chicago Center
Wed 11:53:48 AM 41.7542 -89.7464 85° East 481 554 35,000  Level Chicago Center
Wed 11:54:50 AM 41.7656 -89.5722 85° East 473 544 35,000  Level Chicago Center
Wed 11:55:52 AM 41.7742 -89.4081 86° East 460 529 35,000  Level Chicago Center
Wed 11:56:54 AM 41.7856 -89.2389 85° East 455 524 35,000  Level Chicago Center
Wed 11:57:56 AM 41.7942 -89.0661 86° East 466 536 35,000  Level Chicago Center
Wed 11:58:59 AM 41.8067 -88.8569 85° East 468 539 35,000  Level Chicago Center
Wed 12:00:01 PM 41.8158 -88.6817 86° East 471 542 35,000  Level Chicago Center
Wed 12:01:03 PM 41.8253 -88.5075 86° East 469 540 35,000  Level Chicago Center
Wed 12:02:05 PM 41.8344 -88.3317 86° East 471 542 35,000  Level Chicago Center
Wed 12:03:07 PM 41.8436 -88.1553 86° East 471 542 35,000  Level Chicago Center
Wed 12:04:09 PM 41.8517 -87.9822 86° East 465 535 35,000  Level Chicago Center
Wed 12:05:11 PM 41.8597 -87.8072 86° East 467 537 35,000  Level Chicago Center
Wed 12:06:12 PM 41.8697 -87.5975 86° East 470 541 35,000  Level Chicago Center
Wed 12:07:14 PM 41.8778 -87.4236 86° East 468 539 35,000  Level Chicago Center
Wed 12:08:16 PM 41.8844 -87.2514 87° East 464 534 35,000  Level Chicago Center
Wed 12:09:18 PM 41.8911 -87.0797 87° East 462 532 35,000  Level Chicago Center
Wed 12:10:20 PM 41.8986 -86.9075 87° East 464 534 35,000  Level Chicago Center
Wed 12:11:22 PM 41.9036 -86.7389 88° East 456 525 35,000  Level Chicago Center
Wed 12:12:24 PM 41.9119 -86.5558 86° East 458 527 35,000  Level Chicago Center
Wed 12:13:26 PM 41.9178 -86.3864 87° East 456 525 35,000  Level Chicago Center
Wed 12:14:28 PM 41.9219 -86.2167 88° East 455 524 35,000  Level Chicago Center
Wed 12:15:30 PM 41.9294 -86.0133 87° East 453 521 35,000  Level Chicago Center
Wed 12:16:32 PM 41.9347 -85.8439 88° East 453 521 35,000  Level Chicago Center
Wed 12:17:35 PM 41.9397 -85.6717 88° East 456 525 35,000  Level Chicago Center
Wed 12:18:37 PM 41.9444 -85.4983 88° East 460 529 35,000  Level Chicago Center
Wed 12:19:39 PM 41.9492 -85.3253 88° East 460 529 35,000  Level Chicago Center
Wed 12:19:57 PM 41.9544 -85.2522 84° East 456 525 35,000  Level Cleveland Center
Wed 12:20:57 PM 41.9531 -85.0817 91° East 456 525 35,000  Level Cleveland Center
Wed 12:21:57 PM 41.9533 -84.9114 90° East 456 525 35,000  Level Cleveland Center
Wed 12:22:57 PM 41.9514 -84.7408 91° East 461 531 35,000  Level Cleveland Center
Wed 12:23:57 PM 41.9531 -84.5706 89° East 461 531 35,000  Level Cleveland Center
Wed 12:24:57 PM 41.9506 -84.4028 91° East 461 531 35,000  Level Cleveland Center
Wed 12:25:57 PM 41.9431 -84.2517 94° East 461 531 35,000  Level Cleveland Center
Wed 12:26:57 PM 41.9419 -84.0839 90° East 455 524 35,000  Level Cleveland Center
Wed 12:27:57 PM 41.9386 -83.9164 91° East 455 524 35,000  Level Cleveland Center
Wed 12:28:57 PM 41.9369 -83.7514 91° East 450 518 35,000  Level Cleveland Center
Wed 12:29:57 PM 41.9333 -83.5811 92° East 450 518 35,000  Level Cleveland Center
Wed 12:30:57 PM 41.9339 -83.3967 90° East 450 518 35,000  Level Cleveland Center
Wed 12:31:57 PM 41.9311 -83.2514 91° East 444 511 35,000 -350 Level Cleveland Center
Wed 12:32:57 PM 41.9306 -83.0894 90° East 439 505 34,300 -900 Descending Cleveland Center
Wed 12:33:57 PM 41.9297 -82.9219 90° East 439 505 33,200 -1,000 Descending Cleveland Center
Wed 12:34:57 PM 41.9289 -82.7575 90° East 439 505 32,300 -900 Descending Cleveland Center
Wed 12:35:57 PM 41.9278 -82.5925 90° East 439 505 31,400 -650 Descending Cleveland Center
Wed 12:36:57 PM 41.9222 -82.4278 93° East 444 511 31,000 -200 Descending Cleveland Center
Wed 12:37:57 PM 41.9247 -82.2603 89° East 444 511 31,000  Level Cleveland Center
Wed 12:38:57 PM 41.9208 -82.0817 92° East 438 504 31,000  Level Cleveland Center
Wed 12:39:57 PM 41.9186 -81.9253 91° East 427 491 31,000  Level Cleveland Center
Wed 12:40:57 PM 41.9142 -81.7775 92° East 407 468 31,000  Level Cleveland Center
Wed 12:41:57 PM 41.8989 -81.6292 98° East 400 460 31,000  Level Cleveland Center
Wed 12:42:57 PM 41.8878 -81.4814 96° East 400 460 31,000  Level Cleveland Center
Wed 12:43:57 PM 41.8739 -81.3500 98° East 400 460 31,000  Level Cleveland Center
Wed 12:44:57 PM 41.8583 -81.2019 98° East 400 460 31,000  Level Cleveland Center
Wed 12:45:57 PM 41.8444 -81.0569 97° East 387 445 31,000  Level Cleveland Center
Wed 12:46:57 PM 41.8344 -80.9119 95° East 387 445 31,000  Level Cleveland Center
Wed 12:47:57 PM 41.8203 -80.7697 98° East 387 445 31,000  Level Cleveland Center
Wed 12:48:57 PM 41.8036 -80.6139 98° East 387 445 31,000 50 Level Cleveland Center
Wed 12:49:57 PM 41.7889 -80.4689 98° East 387 445 31,100  Climbing Cleveland Center
Wed 12:50:57 PM 41.7742 -80.3242 98° East 387 445 31,000 -50 Descending Cleveland Center
Wed 12:51:57 PM 41.7614 -80.1822 97° East 387 445 31,000  Level Cleveland Center
Wed 12:52:57 PM 41.7461 -80.0378 98° East 387 445 31,000  Level Cleveland Center
Wed 12:53:57 PM 41.7328 -79.8958 97° East 387 445 31,000  Level Cleveland Center
Wed 12:54:57 PM 41.7172 -79.7569 98° East 387 445 31,000  Level Cleveland Center
Wed 12:55:57 PM 41.7017 -79.6181 98° East 387 445 31,000  Level Cleveland Center
Wed 12:56:57 PM 41.6878 -79.4764 97° East 387 445 31,000  Level Cleveland Center
Wed 12:57:57 PM 41.6719 -79.3378 99° East 387 445 31,000  Level Cleveland Center
Wed 12:58:57 PM 41.6556 -79.1936 99° East 394 453 31,000  Level Cleveland Center
Wed 12:59:57 PM 41.6414 -79.0550 98° East 387 445 31,000  Level Cleveland Center
Wed 01:00:57 PM 41.6225 -78.9111 100° East 387 445 31,000  Level Cleveland Center
Wed 01:01:57 PM 41.6078 -78.7642 98° East 392 451 31,000  Level Cleveland Center
Wed 01:02:57 PM 41.5908 -78.6147 99° East 397 457 31,000  Level Cleveland Center
Wed 01:04:42 PM 41.5611 -78.3761 99° East 404 465 31,000  Level New York Center
Wed 01:05:41 PM 41.5436 -78.2244 99° East 409 471 31,000  Level New York Center
Wed 01:06:42 PM 41.5258 -78.0756 99° East 414 476 31,000  Level New York Center
Wed 01:07:43 PM 41.5058 -77.9239 100° East 414 476 31,000  Level New York Center
Wed 01:08:43 PM 41.4856 -77.7747 100° East 414 476 31,000  Level New York Center
Wed 01:09:41 PM 41.4647 -77.6314 101° East 409 471 31,000 -454 Level New York Center
Wed 01:10:42 PM 41.4439 -77.4881 101° East 399 459 30,100 -1,869 Descending New York Center
Wed 01:11:43 PM 41.4194 -77.3278 101° East 392 451 27,200 -3,223 Descending New York Center
Wed 01:12:43 PM 41.3983 -77.1792 101° East 397 457 23,600 -2,136 Descending New York Center
Wed 01:13:41 PM 41.3811 -77.0364 99° East 397 457 23,000 -353 Descending New York Center
Wed 01:14:42 PM 41.3783 -76.8869 91° East 397 457 22,900 -550 Descending New York Center
Wed 01:15:41 PM 41.3544 -76.7436 102° East 392 451 21,900 -1,008 Descending New York Center
Wed 01:16:41 PM 41.3133 -76.6075 112° Southeast 392 451 20,900 -942 Descending New York Center
Wed 01:17:42 PM 41.2700 -76.4683 112° Southeast 397 457 20,000 -992 Descending New York Center
Wed 01:18:42 PM 41.2308 -76.3300 111° Southeast 397 457 18,900 -992 Descending New York Center
Wed 01:19:43 PM 41.1892 -76.1969 113° Southeast 397 457 18,000 -942 Descending New York Center
Wed 01:20:43 PM 41.1528 -76.0783 112° Southeast 391 450 17,000 -1,059 Descending New York Center
Wed 01:21:42 PM 41.1167 -75.9514 111° Southeast 381 438 15,900 -1,200 Descending New York Center
Wed 01:22:43 PM 41.0789 -75.8136 110° East 371 427 14,600 -1,190 Descending New York Center
Wed 01:23:43 PM 41.0447 -75.6900 110° East 365 420 13,500 -800 Descending New York Center
Wed 01:24:43 PM 41.0139 -75.5750 110° East 360 414 13,000 -559 Descending New York Center
Wed 01:25:41 PM 40.9772 -75.4489 111° Southeast 355 409 12,400 -756 Descending New York Center
Wed 01:26:42 PM 40.9481 -75.3481 111° Southeast 313 360 11,500 -1,131 Descending New York Center
Wed 01:27:43 PM 40.9225 -75.2528 110° East 285 328 10,100 -1,563 Descending New York Center
Wed 01:28:41 PM 40.9006 -75.1717 110° East 273 314 8,400 -1,550 Descending New York Center
Wed 01:29:43 PM 40.8725 -75.0794 112° Southeast 273 314 7,000 -700 Descending New York Center
Wed 01:30:41 PM 40.8450 -74.9789 110° East 273 314 7,000  Level New York Center
Wed 01:31:40 PM 40.8289 -74.9039 106° East 268 308 7,000 -400 Level New York Center
Wed 01:32:41 PM 40.8058 -74.7900 105° East 268 308 6,200 -492 Descending New York Center
Wed 01:33:42 PM 40.7772 -74.7117 116° Southeast 263 303 6,000 -400 Descending New York Center
Wed 01:34:41 PM 40.7275 -74.6403 133° Southeast 253 291 5,400 -513 Descending New York Center
Wed 01:35:39 PM 40.6667 -74.6167 164° South 255 293 5,000 -194 Descending New York TRACON
Wed 01:36:45 PM 40.6000 -74.6000 169° South 209 241 5,000 -200 Level New York TRACON
Wed 01:37:39 PM 40.5500 -74.5833 166° South 187 215 4,600 -526 Descending New York TRACON
Wed 01:38:39 PM 40.5000 -74.5500 153° Southeast 188 216 4,000 -300 Descending New York TRACON
Wed 01:39:39 PM 40.4500 -74.5167 153° Southeast 189 217 4,000 -190 Level New York TRACON
Wed 01:40:45 PM 40.4000 -74.4833 153° Southeast 188 216 3,600 -476 Descending New York TRACON
Wed 01:41:45 PM 40.3500 -74.4500 153° Southeast 195 224 3,000 -300 Descending New York TRACON
Wed 01:42:45 PM 40.3667 -74.3833 72° East 216 249 3,000  Level New York TRACON
Wed 01:43:45 PM 40.4167 -74.3500 27° Northeast 220 253 3,000  Level New York TRACON
Wed 01:44:45 PM 40.4667 -74.3167 27° Northeast 220 253 3,000  Level New York TRACON
Wed 01:45:45 PM 40.5167 -74.2667 37° Northeast 203 234 3,000 -250 Level New York TRACON
Wed 01:46:45 PM 40.5667 -74.2500 14° North 197 227 2,500 -500 Descending New York TRACON

Login

Don't have an account? Register now (free) for customized features, flight alerts, and more!